Time;durP1;ratioP1;P1;durP2;ratioP2;P2;SDS_P1;SDS_P2;PMS_P1;PMS_P2;Temp;Humidity;BMP_temperature;BMP_pressure;BME280_temperature;BME280_humidity;BME280_pressure;Samples;Min_cycle;Max_cycle;Signal;HPM_P1;HPM_P2
2021/09/15 00:00:12;;;;;;;57.17;33.72;;;;;;;19.66;75.81;100276.91;4995643;28;20030;-89
2021/09/15 00:02:37;;;;;;;54.35;33.60;;;;;;;19.81;75.37;100285.91;5012516;28;20018;-89
2021/09/15 00:05:04;;;;;;;56.25;34.42;;;;;;;19.58;75.82;100280.38;5011607;28;20057;-89
2021/09/15 00:07:30;;;;;;;57.95;34.85;;;;;;;19.58;75.59;100290.22;5012253;28;20018;-90
2021/09/15 00:09:55;;;;;;;63.55;37.30;;;;;;;19.24;76.88;100280.53;5012041;28;20022;-89
2021/09/15 00:12:20;;;;;;;60.72;36.60;;;;;;;19.47;76.72;100293.19;5012158;28;20030;-89
2021/09/15 00:14:46;;;;;;;61.10;37.63;;;;;;;19.41;77.02;100302.66;5012125;28;20022;-89
2021/09/15 00:17:11;;;;;;;57.72;35.83;;;;;;;19.40;76.99;100296.50;5010755;28;20061;-89
2021/09/15 00:19:36;;;;;;;54.05;34.17;;;;;;;19.48;76.53;100298.34;5011906;28;20014;-89
2021/09/15 00:22:02;;;;;;;53.13;33.15;;;;;;;19.53;76.20;100297.84;5011747;28;20030;-89
2021/09/15 00:24:27;;;;;;;60.53;35.60;;;;;;;19.38;76.84;100293.19;5011857;28;20105;-89
2021/09/15 00:26:53;;;;;;;54.80;34.05;;;;;;;19.60;75.28;100297.03;5011838;28;20037;-89
2021/09/15 00:29:18;;;;;;;57.70;36.20;;;;;;;19.50;76.24;100299.03;5011870;28;20061;-89
2021/09/15 00:31:44;;;;;;;66.05;38.20;;;;;;;19.28;77.06;100289.03;4996254;28;20085;-89
2021/09/15 00:34:09;;;;;;;61.00;36.13;;;;;;;19.31;76.57;100278.88;4992275;28;20029;-90
2021/09/15 00:36:34;;;;;;;63.35;37.22;;;;;;;19.19;77.45;100281.03;4992049;28;20038;-90
2021/09/15 00:39:00;;;;;;;61.25;35.65;;;;;;;19.15;77.60;100284.97;4992156;28;20105;-89
2021/09/15 00:41:25;;;;;;;55.33;32.58;;;;;;;19.12;77.12;100271.19;4992090;28;20030;-90
2021/09/15 00:44:08;;;;;;;54.03;33.17;;;;;;;19.15;78.21;100270.84;4991998;28;20022;-90
2021/09/15 00:46:34;;;;;;;55.45;32.75;;;;;;;18.87;79.17;100280.94;4990890;28;20388;-89
2021/09/15 00:49:00;;;;;;;56.65;35.90;;;;;;;19.29;77.05;100278.19;4992083;28;20034;-89
2021/09/15 00:51:27;;;;;;;60.60;35.30;;;;;;;19.48;75.39;100281.56;4993970;28;20033;-89
2021/09/15 00:53:52;;;;;;;50.75;31.05;;;;;;;19.56;74.74;100281.56;4995895;28;20038;-89
2021/09/15 00:56:19;;;;;;;53.22;34.63;;;;;;;19.17;75.04;100276.84;4998849;28;20037;-89
2021/09/15 00:58:44;;;;;;;50.13;33.30;;;;;;;19.39;75.24;100275.38;4995960;28;20034;-90
2021/09/15 01:01:10;;;;;;;56.20;34.40;;;;;;;19.37;75.35;100283.56;5008411;28;20115;-90
2021/09/15 01:03:35;;;;;;;53.10;33.88;;;;;;;19.32;75.40;100279.72;5015118;28;20883;-90
2021/09/15 01:06:00;;;;;;;52.72;32.85;;;;;;;19.42;74.83;100281.22;5015157;28;20033;-89
2021/09/15 01:08:27;;;;;;;52.90;32.20;;;;;;;19.03;75.96;100278.31;5015296;28;20033;-89
2021/09/15 01:10:53;;;;;;;47.78;31.10;;;;;;;19.14;74.66;100275.34;5014882;28;20472;-89
2021/09/15 01:13:20;;;;;;;44.35;30.77;;;;;;;19.42;74.38;100275.88;5014881;28;20048;-89
2021/09/15 01:15:46;;;;;;;42.13;28.92;;;;;;;19.58;73.64;100279.56;5011597;28;20028;-90
2021/09/15 01:18:13;;;;;;;40.00;27.17;;;;;;;19.47;74.23;100278.06;4977800;28;20031;-90
2021/09/15 01:20:39;;;;;;;41.45;28.83;;;;;;;19.42;73.50;100270.56;4975817;28;20082;-89
2021/09/15 01:23:04;;;;;;;39.45;28.80;;;;;;;19.30;74.60;100277.19;4975777;28;20023;-89
2021/09/15 01:25:30;;;;;;;40.05;27.40;;;;;;;19.39;74.62;100283.34;4975554;28;20035;-89
2021/09/15 01:27:55;;;;;;;40.92;28.55;;;;;;;19.51;74.07;100283.88;4975680;28;20038;-90
2021/09/15 01:30:20;;;;;;;37.40;26.20;;;;;;;19.21;74.45;100279.03;4987992;28;20117;-90
2021/09/15 01:32:46;;;;;;;38.35;28.10;;;;;;;19.31;74.97;100286.88;5013257;28;20037;-89
2021/09/15 01:35:11;;;;;;;36.00;27.10;;;;;;;19.35;74.53;100282.88;5014279;28;20472;-89
2021/09/15 01:37:36;;;;;;;34.55;25.50;;;;;;;19.45;73.70;100273.88;5014313;28;20022;-89
2021/09/15 01:40:03;;;;;;;36.58;26.05;;;;;;;19.15;74.00;100268.19;5014435;28;20030;-90
2021/09/15 01:42:28;;;;;;;35.15;26.73;;;;;;;19.35;73.71;100271.38;5014407;28;20034;-89
2021/09/15 01:44:53;;;;;;;34.65;25.15;;;;;;;18.92;74.96;100271.47;5014435;28;20160;-89
2021/09/15 01:47:19;;;;;;;30.20;23.35;;;;;;;18.89;76.28;100268.28;5014252;28;20026;-89
2021/09/15 01:49:45;;;;;;;32.70;24.90;;;;;;;18.74;76.60;100276.00;5014373;28;20022;-89
2021/09/15 01:52:12;;;;;;;32.67;25.35;;;;;;;19.06;75.34;100275.34;5014259;28;20169;-89
2021/09/15 01:54:38;;;;;;;33.20;25.45;;;;;;;19.07;75.51;100270.84;5014270;28;20022;-89
2021/09/15 01:57:04;;;;;;;30.00;22.75;;;;;;;19.26;74.78;100270.53;5014026;28;20464;-89
2021/09/15 01:59:30;;;;;;;34.08;24.33;;;;;;;19.17;75.01;100267.06;5012264;28;20025;-89
2021/09/15 02:01:55;;;;;;;32.60;24.05;;;;;;;19.19;73.85;100267.72;4992578;28;20038;-89
2021/09/15 02:04:20;;;;;;;28.00;22.00;;;;;;;19.06;74.51;100264.69;4994402;28;20030;-89
2021/09/15 02:06:46;;;;;;;33.15;23.05;;;;;;;19.21;73.67;100264.88;4993030;28;20117;-89
2021/09/15 02:09:11;;;;;;;32.80;23.50;;;;;;;19.16;73.28;100253.91;4993291;28;20109;-90
2021/09/15 02:11:37;;;;;;;31.35;23.73;;;;;;;19.14;73.08;100267.38;4994382;28;20022;-90
2021/09/15 02:14:04;;;;;;;30.08;20.80;;;;;;;19.19;73.32;100270.38;4994328;28;20393;-90
2021/09/15 02:16:30;;;;;;;29.90;22.23;;;;;;;19.21;72.35;100262.22;4994044;28;20030;-89
2021/09/15 02:18:55;;;;;;;31.25;23.15;;;;;;;19.21;72.48;100272.84;4994037;28;20026;-89
2021/09/15 02:21:21;;;;;;;33.88;23.77;;;;;;;19.16;72.65;100267.22;4994321;28;20053;-89
2021/09/15 02:23:46;;;;;;;31.17;22.58;;;;;;;19.01;72.82;100267.81;4994153;28;20049;-89
2021/09/15 02:26:12;;;;;;;30.40;22.80;;;;;;;19.01;73.15;100274.97;4994122;28;20491;-89
2021/09/15 02:28:38;;;;;;;29.63;20.27;;;;;;;18.95;74.10;100271.13;4994097;28;20022;-90
2021/09/15 02:31:04;;;;;;;28.02;20.27;;;;;;;18.81;74.37;100282.41;5007610;28;20030;-90
2021/09/15 02:33:29;;;;;;;31.30;21.08;;;;;;;18.67;75.66;100275.00;5012182;28;20487;-90
2021/09/15 02:35:54;;;;;;;33.70;22.90;;;;;;;18.88;76.06;100275.44;5013377;28;20496;-90
2021/09/15 02:38:20;;;;;;;31.65;23.70;;;;;;;19.11;74.72;100275.66;5013449;28;20062;-89
2021/09/15 02:40:45;;;;;;;35.45;23.00;;;;;;;19.17;74.53;100275.03;5013442;28;20109;-90
2021/09/15 02:43:11;;;;;;;33.40;23.17;;;;;;;19.21;73.99;100280.84;5013220;28;20033;-90
2021/09/15 02:45:36;;;;;;;36.00;23.27;;;;;;;18.96;75.23;100280.78;5013245;28;20050;-90
2021/09/15 02:48:02;;;;;;;35.05;22.23;;;;;;;18.76;76.47;100279.34;5013091;28;20061;-89
2021/09/15 02:50:27;;;;;;;35.83;23.92;;;;;;;19.03;75.87;100275.66;5013291;28;20022;-90
2021/09/15 02:52:52;;;;;;;33.45;22.17;;;;;;;19.33;74.97;100274.22;5013412;28;20392;-90
2021/09/15 02:55:18;;;;;;;34.88;22.77;;;;;;;19.38;74.09;100279.88;5007782;28;20023;-89
2021/09/15 02:57:43;;;;;;;35.85;23.85;;;;;;;19.43;74.56;100268.72;4993366;28;20030;-90
2021/09/15 03:00:09;;;;;;;34.85;23.15;;;;;;;19.44;74.46;100278.38;4993095;28;20023;-89
2021/09/15 03:02:35;;;;;;;29.77;21.95;;;;;;;19.45;74.17;100273.88;4993832;28;20365;-89
2021/09/15 03:05:00;;;;;;;34.90;22.65;;;;;;;19.49;74.33;100280.53;4993311;28;20030;-89
2021/09/15 03:07:26;;;;;;;35.15;23.23;;;;;;;19.50;74.19;100291.03;4993522;28;20424;-89
2021/09/15 03:09:51;;;;;;;34.00;23.50;;;;;;;19.52;74.26;100274.91;4993373;28;20028;-89
2021/09/15 03:12:16;;;;;;;37.10;24.23;;;;;;;19.46;73.77;100275.56;4993288;28;20132;-90
2021/09/15 03:14:42;;;;;;;42.28;27.42;;;;;;;19.45;74.74;100279.22;4992307;28;20030;-89
2021/09/15 03:17:07;;;;;;;41.83;26.83;;;;;;;19.21;75.21;100278.19;4993042;28;20056;-89
2021/09/15 03:19:32;;;;;;;45.17;24.20;;;;;;;19.17;75.39;100279.50;4993138;28;20069;-89
2021/09/15 03:21:58;;;;;;;37.83;22.77;;;;;;;19.18;75.48;100276.69;4992997;28;20023;-89
2021/09/15 03:24:23;;;;;;;36.80;23.23;;;;;;;19.07;75.44;100278.81;4993188;28;20381;-89
2021/09/15 03:26:49;;;;;;;37.83;22.60;;;;;;;19.07;76.28;100281.47;5009050;28;20034;-89
2021/09/15 03:29:15;;;;;;;35.60;21.65;;;;;;;19.01;76.62;100273.13;5012537;28;20088;-89
2021/09/15 03:31:40;;;;;;;46.63;26.65;;;;;;;18.93;77.08;100283.75;5012495;28;20034;-89
2021/09/15 03:34:06;;;;;;;42.83;25.45;;;;;;;18.78;78.14;100267.56;5012099;28;20112;-90
2021/09/15 03:36:31;;;;;;;41.05;26.42;;;;;;;18.60;78.30;100277.44;5010987;28;20030;-89
2021/09/15 03:38:56;;;;;;;41.95;27.35;;;;;;;18.96;77.76;100274.66;5012297;28;20029;-89
2021/09/15 03:41:22;;;;;;;39.95;23.23;;;;;;;18.85;76.78;100278.41;5012484;28;20443;-89
2021/09/15 03:43:47;;;;;;;41.85;26.92;;;;;;;19.05;76.52;100272.81;5012313;28;20052;-89
2021/09/15 03:46:12;;;;;;;47.67;28.90;;;;;;;19.12;75.94;100273.84;5012104;28;20030;-89
2021/09/15 03:48:38;;;;;;;40.10;25.73;;;;;;;19.06;76.20;100275.34;5012081;28;20030;-89
2021/09/15 03:51:03;;;;;;;42.63;26.58;;;;;;;19.08;76.83;100278.66;5012185;28;20064;-89
2021/09/15 03:53:28;;;;;;;40.78;24.98;;;;;;;19.06;76.83;100285.16;5012191;28;20056;-89
2021/09/15 03:55:54;;;;;;;35.97;25.30;;;;;;;19.05;76.58;100276.31;5000277;28;20386;-89
2021/09/15 03:58:19;;;;;;;40.63;25.38;;;;;;;18.94;76.55;100281.97;4992444;28;20027;-89
2021/09/15 04:00:44;;;;;;;41.03;26.02;;;;;;;18.94;76.75;100282.78;4997927;28;20080;-89
2021/09/15 04:03:10;;;;;;;46.30;26.48;;;;;;;18.88;76.97;100283.44;5012239;28;20026;-89
2021/09/15 04:05:36;;;;;;;40.95;26.40;;;;;;;18.79;76.49;100279.03;5011959;28;20054;-89
2021/09/15 04:08:01;;;;;;;41.75;26.52;;;;;;;18.72;76.56;100284.19;5012107;28;20104;-89
2021/09/15 04:10:27;;;;;;;42.38;26.77;;;;;;;18.73;77.27;100282.34;5011994;28;20379;-89
2021/09/15 04:12:52;;;;;;;43.05;27.95;;;;;;;18.69;75.85;100288.97;5011998;28;20040;-89
2021/09/15 04:15:17;;;;;;;42.55;26.77;;;;;;;18.61;75.63;100285.28;5011851;28;20421;-89
2021/09/15 04:17:43;;;;;;;44.42;26.88;;;;;;;18.60;76.89;100283.63;5012197;28;20118;-89
2021/09/15 04:20:09;;;;;;;42.67;26.52;;;;;;;18.60;77.06;100290.75;5011984;28;20476;-89
2021/09/15 04:22:36;;;;;;;42.05;26.70;;;;;;;18.52;76.53;100283.59;5012049;28;20030;-89
2021/09/15 04:32:59;;;;;;;56.20;31.75;;;;;;;18.22;76.94;100301.69;4996580;28;20033;-89
2021/09/15 04:35:25;;;;;;;54.28;30.27;;;;;;;18.20;76.83;100301.00;4996117;28;20392;-89
2021/09/15 04:37:51;;;;;;;51.63;29.65;;;;;;;18.23;77.05;100313.16;4996023;28;20428;-89
2021/09/15 04:40:16;;;;;;;50.85;30.17;;;;;;;18.17;77.39;100301.31;4995996;28;20022;-89
2021/09/15 04:42:41;;;;;;;53.65;31.00;;;;;;;18.12;77.16;100306.25;4994754;28;20034;-89
2021/09/15 04:45:08;;;;;;;52.60;30.05;;;;;;;18.15;77.20;100303.31;4995929;28;20034;-89
2021/09/15 04:47:33;;;;;;;52.92;30.50;;;;;;;18.14;76.83;100306.94;4995923;28;20113;-88
2021/09/15 04:49:59;;;;;;;56.78;30.83;;;;;;;18.12;76.54;100308.09;4996029;28;20445;-89
2021/09/15 04:52:24;;;;;;;55.10;30.90;;;;;;;18.04;77.18;100316.84;4996004;28;20120;-88
2021/09/15 04:54:50;;;;;;;50.30;28.13;;;;;;;17.92;77.66;100312.75;5000627;28;20559;-89
2021/09/15 04:57:15;;;;;;;54.55;29.98;;;;;;;17.89;78.28;100326.34;5015208;28;20029;-89
2021/09/15 04:59:41;;;;;;;55.22;30.10;;;;;;;17.88;79.09;100335.31;5015396;28;20456;-89
2021/09/15 05:02:06;;;;;;;57.88;30.55;;;;;;;17.83;79.17;100326.00;5015237;28;20522;-89
2021/09/15 05:04:31;;;;;;;58.70;32.60;;;;;;;17.75;80.38;100330.34;5015223;28;20109;-88
2021/09/15 05:06:57;;;;;;;59.53;31.73;;;;;;;17.50;81.84;100331.97;5015202;28;20022;-89
2021/09/15 05:09:22;;;;;;;60.40;32.38;;;;;;;17.83;81.75;100341.03;5014948;28;20076;-89
2021/09/15 05:11:47;;;;;;;71.15;37.20;;;;;;;17.96;80.46;100340.69;5015005;28;20089;-89
2021/09/15 05:14:13;;;;;;;60.30;31.63;;;;;;;18.15;80.00;100337.03;5013661;28;20396;-88
2021/09/15 05:16:38;;;;;;;72.93;35.70;;;;;;;18.15;79.56;100345.00;5015140;28;20116;-89
2021/09/15 05:19:03;;;;;;;55.95;30.58;;;;;;;18.20;79.61;100343.50;5014940;28;20487;-89
2021/09/15 05:21:29;;;;;;;56.95;30.58;;;;;;;18.23;79.90;100339.75;5015056;28;20045;-89
2021/09/15 05:23:54;;;;;;;62.35;31.27;;;;;;;18.26;79.57;100347.38;5014725;28;20072;-89
2021/09/15 05:26:20;;;;;;;57.63;31.70;;;;;;;18.26;79.73;100341.25;4996012;28;20117;-89
2021/09/15 05:28:45;;;;;;;50.72;28.83;;;;;;;18.35;79.79;100345.63;4995200;28;20057;-89
2021/09/15 05:31:10;;;;;;;53.55;30.10;;;;;;;18.31;79.41;100354.91;4995069;28;20384;-89
2021/09/15 05:33:36;;;;;;;58.38;32.05;;;;;;;18.24;78.81;100352.84;4993767;28;20065;-89
2021/09/15 05:36:01;;;;;;;53.75;29.85;;;;;;;18.21;78.64;100353.16;4994553;28;20058;-88
2021/09/15 05:38:26;;;;;;;57.92;32.33;;;;;;;18.15;78.28;100364.44;4994391;28;20057;-89
2021/09/15 05:40:52;;;;;;;63.78;34.63;;;;;;;17.97;78.69;100358.28;5000957;28;20022;-89
2021/09/15 05:43:17;;;;;;;56.67;32.20;;;;;;;17.99;78.64;100361.63;4994599;28;20080;-88
2021/09/15 05:45:43;;;;;;;52.92;30.75;;;;;;;17.99;78.30;100369.59;4994723;28;20030;-89
2021/09/15 05:48:08;;;;;;;55.63;31.42;;;;;;;17.99;77.76;100374.91;4994520;28;20106;-89
2021/09/15 05:50:33;;;;;;;52.13;28.70;;;;;;;17.92;77.92;100371.19;4994122;28;20039;-89
2021/09/15 05:52:59;;;;;;;51.78;29.90;;;;;;;17.86;77.53;100371.81;4996119;28;20481;-88
2021/09/15 05:55:25;;;;;;;49.20;29.30;;;;;;;17.85;78.10;100384.25;5006212;28;20026;-89
2021/09/15 05:57:50;;;;;;;52.38;29.10;;;;;;;17.80;77.36;100382.03;5014225;28;20369;-89
2021/09/15 06:00:16;;;;;;;56.95;30.98;;;;;;;17.65;77.19;100386.19;5012921;28;20113;-89
2021/09/15 06:02:41;;;;;;;55.25;29.42;;;;;;;17.65;76.63;100394.16;5009942;28;20105;-88
2021/09/15 06:05:07;;;;;;;58.95;31.50;;;;;;;17.72;77.27;100394.41;4994521;28;20057;-89
2021/09/15 06:07:33;;;;;;;56.88;30.98;;;;;;;17.67;77.44;100400.13;4996027;28;20041;-89
2021/09/15 06:09:58;;;;;;;52.90;29.52;;;;;;;17.68;77.64;100406.31;4994683;28;20034;-89
2021/09/15 06:12:23;;;;;;;49.85;27.02;;;;;;;17.66;77.67;100403.78;4995631;28;20033;-88
2021/09/15 06:14:49;;;;;;;56.33;29.55;;;;;;;17.62;77.32;100410.41;4996067;28;20493;-90
2021/09/15 06:17:14;;;;;;;56.03;32.55;;;;;;;17.45;76.85;100412.84;4994277;28;20484;-88
2021/09/15 06:19:39;;;;;;;55.67;29.65;;;;;;;17.52;77.17;100405.16;4994106;28;20413;-89
2021/09/15 06:22:05;;;;;;;59.50;32.80;;;;;;;17.52;77.84;100407.78;4994216;28;20033;-89
2021/09/15 06:24:30;;;;;;;55.60;32.42;;;;;;;17.48;77.02;100402.94;4994000;28;20592;-89
2021/09/15 06:26:56;;;;;;;55.78;30.92;;;;;;;17.56;76.69;100406.50;4993982;28;20385;-89
2021/09/15 06:29:21;;;;;;;63.83;33.65;;;;;;;17.60;76.86;100415.84;4990461;28;20069;-89
2021/09/15 06:31:47;;;;;;;65.28;33.83;;;;;;;17.69;77.27;100418.59;4986620;28;20404;-89
2021/09/15 06:34:12;;;;;;;63.17;32.00;;;;;;;17.78;78.39;100415.03;5012144;28;20037;-89
2021/09/15 06:36:39;;;;;;;74.80;37.35;;;;;;;17.92;78.33;100424.34;5012117;28;20114;-89
2021/09/15 06:39:05;;;;;;;67.75;34.40;;;;;;;18.06;78.45;100425.63;5005731;28;20030;-89
2021/09/15 06:41:30;;;;;;;60.50;31.30;;;;;;;18.19;79.01;100426.06;5001886;28;20359;-89
2021/09/15 06:43:56;;;;;;;57.13;28.02;;;;;;;18.23;78.57;100422.13;5012138;28;20034;-89
2021/09/15 06:46:23;;;;;;;55.78;28.88;;;;;;;18.24;79.76;100429.91;4997319;28;20476;-89
2021/09/15 06:48:48;;;;;;;51.60;26.92;;;;;;;18.26;79.45;100423.63;4992698;28;20539;-88
2021/09/15 06:51:14;;;;;;;60.85;30.67;;;;;;;18.62;78.90;100432.34;4993510;28;20030;-89
2021/09/15 06:53:39;;;;;;;53.70;29.38;;;;;;;18.72;77.67;100433.13;4992878;28;20030;-89
2021/09/15 06:56:04;;;;;;;56.90;30.15;;;;;;;18.60;77.86;100435.19;5012521;28;20026;-89
2021/09/15 06:58:30;;;;;;;55.13;30.67;;;;;;;18.79;77.94;100433.31;4995051;28;20030;-89
2021/09/15 07:00:55;;;;;;;56.83;29.80;;;;;;;18.72;77.67;100437.56;4992653;28;20031;-89
2021/09/15 07:03:28;;;;;;;56.22;28.85;;;;;;;18.80;78.80;100437.69;4994157;28;20034;-96
2021/09/15 07:05:53;;;;;;;51.95;25.65;;;;;;;18.57;80.10;100435.50;4993804;28;20089;-89
2021/09/15 07:08:18;;;;;;;46.50;27.33;;;;;;;18.84;76.60;100420.41;4992635;28;20062;-89
2021/09/15 07:10:44;;;;;;;45.72;26.77;;;;;;;19.19;74.43;100439.88;4992993;28;20030;-89
2021/09/15 07:13:09;;;;;;;49.95;27.17;;;;;;;19.19;74.95;100435.41;4992824;28;20104;-90
2021/09/15 07:15:35;;;;;;;49.15;27.73;;;;;;;19.25;75.39;100430.41;4992791;28;20496;-90
2021/09/15 07:18:00;;;;;;;45.17;26.33;;;;;;;19.15;74.82;100438.53;4992704;28;20473;-89
2021/09/15 07:20:26;;;;;;;45.65;27.73;;;;;;;19.15;75.13;100434.03;4993380;28;20030;-89
2021/09/15 07:22:51;;;;;;;42.70;26.77;;;;;;;19.31;73.42;100438.63;4992506;28;20026;-89
2021/09/15 07:25:17;;;;;;;47.25;26.75;;;;;;;19.42;73.66;100430.31;4992697;28;20189;-89
2021/09/15 07:27:42;;;;;;;44.95;27.23;;;;;;;19.52;73.64;100443.50;4987458;28;20093;-90
2021/09/15 07:30:09;;;;;;;42.20;26.45;;;;;;;19.61;73.41;100449.69;4986474;28;20037;-90
2021/09/15 07:32:34;;;;;;;56.28;32.88;;;;;;;19.90;72.93;100443.13;4992857;28;20173;-89
2021/09/15 07:35:00;;;;;;;59.08;33.47;;;;;;;20.06;73.03;100453.78;4996603;28;20496;-90
2021/09/15 07:37:25;;;;;;;55.50;33.17;;;;;;;20.23;72.60;100459.16;4995350;28;20033;-89
2021/09/15 07:39:53;;;;;;;58.20;33.97;;;;;;;20.31;72.69;100453.81;4991852;28;20027;-90
2021/09/15 07:42:18;;;;;;;56.72;34.67;;;;;;;20.35;72.09;100455.16;4992217;28;20026;-89
2021/09/15 07:44:43;;;;;;;60.22;36.42;;;;;;;20.41;70.91;100457.16;4992587;28;20034;-90
2021/09/15 07:47:15;;;;;;;60.90;36.67;;;;;;;20.78;71.58;100459.31;4992822;28;20030;-90
2021/09/15 07:49:40;;;;;;;70.05;38.25;;;;;;;21.13;71.49;100461.72;4992609;28;20093;-90
2021/09/15 07:52:06;;;;;;;56.47;35.45;;;;;;;21.42;69.20;100463.78;4992619;28;20122;-90
2021/09/15 07:54:31;;;;;;;57.92;34.20;;;;;;;21.75;68.74;100448.44;5001029;28;20476;-90
2021/09/15 07:56:56;;;;;;;49.88;33.05;;;;;;;21.99;66.31;100463.50;5012228;28;20436;-90
2021/09/15 07:59:22;;;;;;;44.35;29.65;;;;;;;23.13;64.57;100452.00;5010392;28;20384;-90
2021/09/15 08:01:47;;;;;;;39.25;29.15;;;;;;;24.10;60.82;100451.69;5012108;28;20044;-90
2021/09/15 08:04:12;;;;;;;39.97;27.50;;;;;;;24.86;59.50;100456.47;5012090;28;20033;-90
2021/09/15 08:06:38;;;;;;;34.28;25.33;;;;;;;25.56;58.07;100461.81;5011977;28;20026;-90
2021/09/15 08:09:03;;;;;;;33.65;26.38;;;;;;;25.82;55.38;100461.06;5012081;28;20025;-90
2021/09/15 08:11:28;;;;;;;34.67;27.80;;;;;;;25.70;53.76;100473.44;5011984;28;20223;-90
2021/09/15 08:13:54;;;;;;;35.80;27.02;;;;;;;25.69;52.20;100478.00;5011962;28;20025;-90
2021/09/15 08:16:20;;;;;;;33.15;26.85;;;;;;;25.55;53.93;100487.03;5011922;28;20040;-90
2021/09/15 08:18:46;;;;;;;32.90;26.77;;;;;;;26.11;52.85;100486.81;5011887;28;20019;-90
2021/09/15 08:21:11;;;;;;;33.78;26.88;;;;;;;26.60;51.68;100483.97;5011894;28;20026;-90
2021/09/15 08:23:36;;;;;;;32.17;25.63;;;;;;;27.04;50.74;100477.09;5011102;28;20030;-91
2021/09/15 08:26:02;;;;;;;27.13;22.30;;;;;;;27.29;50.65;100478.09;4992131;28;20030;-90
2021/09/15 08:28:27;;;;;;;36.00;26.15;;;;;;;27.15;50.07;100483.69;4992222;28;20026;-90
2021/09/15 08:30:53;;;;;;;41.60;25.35;;;;;;;26.86;49.02;100481.25;4992379;28;20105;-90
2021/09/15 08:33:18;;;;;;;26.23;22.20;;;;;;;28.33;48.21;100479.81;4992342;28;20080;-90
2021/09/15 08:35:43;;;;;;;25.63;21.42;;;;;;;29.18;46.21;100493.59;4992180;28;20037;-90
2021/09/15 08:38:10;;;;;;;28.98;23.05;;;;;;;29.73;44.30;100486.53;4992327;28;20038;-91
2021/09/15 08:40:36;;;;;;;24.67;20.48;;;;;;;30.12;44.10;100492.44;4992184;28;20057;-91
2021/09/15 08:43:01;;;;;;;24.08;20.38;;;;;;;30.38;41.51;100492.03;4992087;28;20034;-91
2021/09/15 08:45:27;;;;;;;23.95;19.55;;;;;;;30.37;41.79;100498.53;4992139;28;20031;-90
2021/09/15 08:47:53;;;;;;;25.90;20.67;;;;;;;30.43;42.80;100502.16;4991565;28;20033;-91
2021/09/15 08:50:20;;;;;;;23.02;18.35;;;;;;;31.32;41.84;100499.34;4992449;28;20033;-91
2021/09/15 08:52:46;;;;;;;21.65;18.58;;;;;;;31.58;39.54;100498.00;4991764;28;20038;-91
2021/09/15 08:55:12;;;;;;;24.70;21.77;;;;;;;31.67;39.48;100497.63;5007868;28;20034;-91
2021/09/15 08:57:37;;;;;;;24.08;19.80;;;;;;;31.63;41.31;100495.38;5008186;28;20038;-91
2021/09/15 09:00:08;;;;;;;21.30;18.60;;;;;;;32.42;38.81;100494.63;4992003;28;20437;-91
2021/09/15 09:02:38;;;;;;;24.88;20.65;;;;;;;31.80;37.89;100490.00;4996786;28;20100;-91
2021/09/15 09:05:04;;;;;;;23.30;19.52;;;;;;;32.48;38.76;100490.09;4991902;28;20033;-91
2021/09/15 09:07:31;;;;;;;21.90;19.60;;;;;;;32.64;38.64;100495.81;4991585;28;20022;-90
2021/09/15 09:09:59;;;;;;;21.80;19.40;;;;;;;32.32;37.83;100493.66;4991771;28;20022;-91
2021/09/15 09:12:31;;;;;;;24.77;19.17;;;;;;;32.69;38.38;100502.16;4979555;28;20061;-90
2021/09/15 09:15:26;;;;;;;28.08;19.27;;;;;;;32.41;38.29;100506.59;4995417;28;20054;-87
2021/09/15 09:17:52;;;;;;;23.30;17.35;;;;;;;32.61;38.03;100502.56;4995019;28;20615;-91
2021/09/15 09:20:31;;;;;;;22.10;16.27;;;;;;;33.32;36.01;100510.13;4994905;28;20076;-88
2021/09/15 09:23:14;;;;;;;19.30;17.13;;;;;;;33.10;35.86;100502.78;4995158;28;20508;-88
2021/09/15 09:25:45;;;;;;;21.25;18.15;;;;;;;33.21;36.00;100505.63;5014047;28;20564;-89
2021/09/15 09:28:23;;;;;;;21.90;17.50;;;;;;;33.10;36.32;100504.69;5003070;28;20112;-89
2021/09/15 09:30:52;;;;;;;26.50;17.80;;;;;;;33.17;36.18;100508.81;4995345;28;20019;-89
2021/09/15 09:33:18;;;;;;;22.05;17.15;;;;;;;33.07;36.76;100507.84;4994646;28;20165;-89
2021/09/15 09:35:47;;;;;;;19.10;15.98;;;;;;;33.33;34.75;100506.31;4995791;28;20030;-89
2021/09/15 09:38:29;;;;;;;18.90;15.90;;;;;;;33.12;36.59;100511.50;4994660;28;20034;-89
2021/09/15 09:41:01;;;;;;;20.20;16.15;;;;;;;34.23;34.88;100514.16;4995038;28;20026;-91
2021/09/15 09:43:27;;;;;;;20.88;17.80;;;;;;;34.47;34.21;100520.88;4975500;28;20546;-89
2021/09/15 09:45:53;;;;;;;18.63;15.60;;;;;;;34.01;34.46;100522.34;4975346;28;20030;-89
2021/09/15 09:48:38;;;;;;;18.67;14.70;;;;;;;34.49;33.62;100523.34;4997766;28;20384;-95
2021/09/15 09:51:21;;;;;;;17.08;14.65;;;;;;;34.65;33.90;100516.09;4995033;28;20026;-91
2021/09/15 09:53:47;;;;;;;14.88;13.32;;;;;;;35.10;33.05;100515.59;4994801;28;20504;-88
2021/09/15 09:56:13;;;;;;;21.73;17.27;;;;;;;34.58;32.45;100513.59;4994239;28;20069;-88
2021/09/15 09:58:43;;;;;;;20.48;16.83;;;;;;;34.41;32.76;100521.09;4995062;28;20477;-88
2021/09/15 10:01:13;;;;;;;18.92;16.42;;;;;;;33.51;34.79;100522.34;4994487;28;20041;-89
2021/09/15 10:03:40;;;;;;;18.73;16.23;;;;;;;33.75;35.14;100519.34;4995576;28;20489;-94
2021/09/15 10:06:06;;;;;;;17.67;15.88;;;;;;;33.74;34.66;100507.63;4993139;28;20058;-94
2021/09/15 10:08:34;;;;;;;16.50;14.82;;;;;;;33.73;34.42;100510.59;4994501;28;20050;-95
2021/09/15 10:11:00;;;;;;;17.75;13.88;;;;;;;34.14;34.21;100511.03;4997321;28;20105;-94
2021/09/15 10:13:25;;;;;;;18.33;15.07;;;;;;;34.62;32.93;100506.53;5013887;28;20104;-94
2021/09/15 10:15:55;;;;;;;15.40;13.80;;;;;;;35.65;32.30;100501.63;5003541;28;20388;-94
2021/09/15 10:18:21;;;;;;;17.83;15.63;;;;;;;34.16;33.71;100506.16;4994488;28;20027;-94
2021/09/15 10:20:51;;;;;;;17.23;15.38;;;;;;;33.52;34.51;100507.63;4995213;28;20279;-94
2021/09/15 10:23:37;;;;;;;18.10;16.20;;;;;;;32.70;35.11;100503.81;4992728;28;20400;-95
2021/09/15 10:26:33;;;;;;;17.55;14.45;;;;;;;34.01;34.02;100504.09;4994022;28;20044;-94
2021/09/15 10:29:18;;;;;;;17.95;15.73;;;;;;;33.08;34.54;100504.88;4992483;28;20069;-94
2021/09/15 10:31:59;;;;;;;16.95;14.27;;;;;;;33.23;34.68;100498.03;4992982;28;20077;-93
2021/09/15 10:34:36;;;;;;;;;;;;;;;33.72;34.64;100507.06;4994156;28;20031;-93
2021/09/15 10:37:01;;;;;;;21.65;17.08;;;;;;;32.95;35.76;100494.38;4993401;28;19953;-94
2021/09/15 10:39:28;;;;;;;20.85;15.82;;;;;;;33.35;34.22;100493.28;4992399;28;20505;-94
2021/09/15 10:41:54;;;;;;;21.17;16.42;;;;;;;32.73;35.07;100499.75;4992403;28;20100;-91
2021/09/15 10:44:21;;;;;;;20.65;16.40;;;;;;;33.30;34.31;100479.63;4993494;28;20034;-94
2021/09/15 10:46:47;;;;;;;19.02;14.80;;;;;;;33.60;33.58;100479.16;5010181;28;20030;-93
2021/09/15 10:49:21;;;;;;;16.63;14.77;;;;;;;33.36;33.81;100470.44;4995782;28;20125;-94
2021/09/15 10:52:07;;;;;;;18.75;16.17;;;;;;;33.04;34.69;100481.13;5002592;28;20555;-94
2021/09/15 10:54:47;;;;;;;18.33;15.43;;;;;;;33.64;34.47;100474.03;4993507;28;20119;-94
2021/09/15 10:57:18;;;;;;;14.85;12.90;;;;;;;33.25;35.91;100468.66;4992081;28;20625;-94
2021/09/15 10:59:55;;;;;;;18.80;16.17;;;;;;;33.06;34.84;100468.97;4992262;28;20045;-94
2021/09/15 11:02:27;;;;;;;17.08;14.82;;;;;;;33.87;35.36;100471.00;4994282;28;20022;-94
2021/09/15 11:04:52;;;;;;;16.13;14.43;;;;;;;34.19;34.27;100467.50;4995788;28;20238;-92
2021/09/15 11:07:46;;;;;;;17.50;15.05;;;;;;;34.25;33.76;100473.84;4995947;28;20128;-95
2021/09/15 11:10:31;;;;;;;15.90;14.20;;;;;;;34.22;33.27;100468.88;4987747;28;20097;-93
2021/09/15 11:13:04;;;;;;;23.77;15.40;;;;;;;34.13;32.92;100472.06;4993410;28;20030;-95
2021/09/15 11:15:35;;;;;;;17.27;14.80;;;;;;;33.96;33.32;100466.72;4972884;28;20041;-94